Pagina principale
METAR-TAF:

METAR-TAF

Aeroporti :

Annecy, Francia

latitudine: 45-55-45N, longitudine: 006-05-56E, altezza: 463 m

Osservazione

Il bollettino è stato emesso 12 minuti fa, alle 10:00 UTC
Vento 3 kt da direzioni variabili
Temperature 2°C
Umidità 75%
Pressione 1018 hPa
Visibilità 10 km o più
nessuna nube inferiore a 1500 m e nessun cumulonembo

METAR: LFLP 161000Z AUTO VRB03KT CAVOK 02/M02 Q1018 NOSIG

Ora: 11:12 (10:12 UTC)

Previsione

Il bollettino è stato emesso 2 ore e 12 minuti fa, alle 08:00 UTC
Previsione valida dal 16 alle 09 UTC al 17 alle 09 UTC
Vento 3 kt da direzioni variabili
Visibilità 10 km o più
nessuna nube inferiore a 1500 m e nessun cumulonembo
Evoluzione graduale
dal 17 alle 00 UTC al 17 alle 03 UTC
Nuvoloso ad un'altezza di 3500 ft
Temporaneamente
dal 17 alle 06 UTC al 17 alle 09 UTC
Visibilità: 4000 m
Nuvoloso ad un'altezza di 1400 ft
pioggia

TAF: LFLP 160800Z 1609/1709 VRB03KT CAVOK BECMG 1700/1703 BKN035 TEMPO 1706/1709 4000 RA BKN014

Osservazioni e previsioni meteorologiche di più di 4000 aeroporti (messaggi METAR e TAF).

Le stazioni disponibili sono rappresentate dai dischi gialli e rossi sulla carta.

Puntare il mouse per vedere il nome della stazione.

Clicca sopra per visualizzare le osservazioni e previsioni meteorologiche.

Per cambiare la mappa : fare clic sui pulsanti verdi con una croce nera per ingrandire, il pulsante verde con un trattino per diminuire, o sulla freccia verde per le mappe adiacenti.


METAR-TAF: